Annawan, Illinois
Current Conditions -  °F | °C
As of 10:55 AM on Saturday 22 Nov 2014 (Local Time) from KSQI Reporting Station
Overcast Overcast  
Wind Chill:   Ceiling: 1300
Heat Index:   Visibility: 4mi
Dew Point:   Wind: 6mph
Humidity: 87%   Direction: 230°SW
Pressure: 29.93"   Gusts: NA
Location:  41.4°N, 89.9°W
Report Text: KSQI 221655Z 23005KT 4SM BKN013 BKN036 OVC044 08/06 A2993 RMK AO1
Loading
Personal Weather Stations






























Interactive Weather Map New forecast layout! Learn more

10-Day Weather Forecast

Advertisements
Track Severe Weather on mobile